ADDS METAR Data INFO
IDs: Format: Raw Decoded Include TAF

Data at: 0041 UTC 23 Oct 2017

KGDB 230029Z AUTO 15007KT 10SM CLR 12/02 A2988 RMK AO2 T01230021
KGDB 230009Z AUTO 17007KT 10SM CLR 12/02 A2988 RMK AO2 T01230022
KGDB 222349Z AUTO 17006KT 10SM CLR 13/02 A2988 RMK AO2 T01320018
KGDB 222329Z AUTO 17007KT 10SM CLR 14/02 A2988 RMK AO2 T01420016
KGDB 222310Z AUTO 17007KT 10SM CLR 15/01 A2988 RMK AO2 T01490013
KGDB 222250Z AUTO 18010KT 10SM CLR 17/01 A2989 RMK AO2 T01660008
KGDB 222230Z AUTO 19009KT 10SM CLR 18/01 A2989 RMK AO2 T01820009
KGDB 222210Z AUTO 19012G17KT 10SM CLR 18/00 A2990 RMK AO2 T01750004
KGDB 222149Z AUTO 19011G16KT 10SM CLR 19/00 A2989 RMK AO2 T01870001
KGDB 222129Z AUTO 19011KT 7SM CLR 19/01 A2990 RMK AO2 T01900008
KGDB 222110Z AUTO 20009G17KT 7SM CLR 19/01 A2991 RMK AO2 T01900011
KGDB 222049Z AUTO 19010KT 10SM CLR 19/01 A2991 RMK AO2 T01870008
KGDB 222029Z AUTO 20010G15KT 10SM CLR 19/01 A2992 RMK AO2 T01850010
KGDB 222010Z AUTO 19010G16KT 7SM CLR 19/01 A2993 RMK AO2 T01860008
KGDB 221949Z AUTO 21013G19KT 10SM CLR 19/01 A2994 RMK AO2 T01850008
KGDB 221930Z AUTO 24015G19KT 7SM CLR 18/00 A2995 RMK AO2 T01840002
KGDB 221909Z AUTO 24011G19KT 10SM CLR 18/01 A2996 RMK AO2 T01820006
KGDB 221849Z AUTO 24012G19KT 10SM CLR 18/00 A2998 RMK AO2 T01820001
KGDB 221830Z AUTO 21012KT 10SM CLR 18/01 A2998 RMK AO2 T01820008
KGDB 221810Z AUTO 24013G16KT 10SM CLR 18/01 A2999 RMK AO2 T01790006
KGDB 221750Z AUTO 23012G17KT 5SM HZ CLR 18/02 A3000 RMK AO2 T01760015
KGDB 221730Z AUTO 24010KT 10SM CLR 17/00 A3001 RMK AO2 T01730001
KGDB 221709Z AUTO 24011G15KT 10SM CLR 17/01 A3001 RMK AO2 T01670014
KGDB 221650Z AUTO 25010KT 5SM HZ CLR 16/02 A3002 RMK AO2 T01590022
KGDB 221629Z AUTO 24011KT 7SM CLR 15/04 A3002 RMK AO2 T01480036
KGDB 221609Z AUTO 24011KT 10SM CLR 14/04 A3002 RMK AO2 T01410041
KGDB 221550Z AUTO 23011KT 7SM CLR 13/05 A3002 RMK AO2 T01320049
KGDB 221529Z AUTO 23008KT 10SM CLR 12/05 A3002 RMK AO2 T01180051
KGDB 221509Z AUTO 23007KT 10SM CLR 10/05 A3001 RMK AO2 T01030050
KGDB 221450Z AUTO 22008KT 10SM CLR 09/05 A3001 RMK AO2 T00920045
KGDB 221429Z AUTO 23008KT 10SM CLR 08/04 A3001 RMK AO2 T00790041
KGDB 221409Z AUTO 23007KT 10SM CLR 06/04 A3001 RMK AO2 T00630038
KGDB 221350Z AUTO 22005KT 10SM CLR 05/03 A3001 RMK AO2 T00470027
KGDB 221329Z AUTO 21006KT 10SM CLR 04/02 A3001 RMK AO2 T00390022
KGDB 221309Z AUTO 20006KT 10SM CLR 04/02 A3000 RMK AO2 T00420022
KGDB 221250Z AUTO 21006KT 7SM CLR 04/02 A3000 RMK AO2 T00350018
KGDB 221229Z AUTO 20006KT 10SM CLR 04/02 A2999 RMK AO2 T00410023
KGDB 221209Z AUTO 21006KT 10SM CLR 04/02 A2998 RMK AO2 T00380018
KGDB 221150Z AUTO 22007KT 10SM CLR 04/02 A2998 RMK AO2 T00410024
KGDB 221130Z AUTO 22006KT 10SM CLR 05/03 A2998 RMK AO2 T00450027
KGDB 221110Z AUTO 22006KT 10SM CLR 05/03 A2997 RMK AO2 T00450029
KGDB 221050Z AUTO 22006KT 10SM CLR 05/03 A2995 RMK AO2 T00500031
KGDB 221030Z AUTO 22005KT 10SM CLR 05/03 A2995 RMK AO2 T00480032
KGDB 221010Z AUTO 21005KT 10SM CLR 05/03 A2995 RMK AO2 T00490033
KGDB 220950Z AUTO 23005KT 10SM CLR 06/04 A2995 RMK AO2 T00550037
KGDB 220930Z AUTO 22006KT 10SM CLR 06/04 A2994 RMK AO2 T00600041
KGDB 220910Z AUTO 22008KT 10SM CLR 06/04 A2995 RMK AO2 T00640044
KGDB 220850Z AUTO 23006KT 10SM CLR 07/05 A2993 RMK AO2 T00650045
KGDB 220830Z AUTO 24006KT 10SM CLR 07/04 A2992 RMK AO2 T00650043
KGDB 220810Z AUTO 23006KT 10SM CLR 07/04 A2993 RMK AO2 T00650044
KGDB 220750Z AUTO 22007KT 10SM CLR 06/05 A2992 RMK AO2 T00640045
KGDB 220730Z AUTO 22006KT 10SM CLR 06/04 A2992 RMK AO2 T00640043
KGDB 220710Z AUTO 20005KT 10SM CLR 06/04 A2993 RMK AO2 T00550040
KGDB 220650Z AUTO 21005KT 10SM CLR 06/04 A2991 RMK AO2 T00570039
KGDB 220629Z AUTO 22006KT 10SM CLR 07/05 A2991 RMK AO2 T00700045
KGDB 220609Z AUTO 23008KT 10SM CLR 08/05 A2990 RMK AO2 T00780048
KGDB 220550Z AUTO 23010KT 7SM CLR 08/05 A2989 RMK AO2 T00810050
KGDB 220529Z AUTO 23008KT 10SM CLR 08/05 A2990 RMK AO2 T00820051
KGDB 220509Z AUTO 23009KT 10SM CLR 08/05 A2990 RMK AO2 T00790050
KGDB 220450Z AUTO 22008KT 10SM CLR 09/05 A2988 RMK AO2 T00850052
KGDB 220429Z AUTO 23008KT 10SM CLR 07/05 A2987 RMK AO2 T00740051
KGDB 220410Z AUTO 23007KT 10SM CLR 07/05 A2985 RMK AO2 T00700048
KGDB 220350Z AUTO 23007KT 10SM CLR 08/05 A2986 RMK AO2 T00750051
KGDB 220329Z AUTO 23006KT 10SM CLR 08/05 A2986 RMK AO2 LTG DSNT NE T00790052
KGDB 220310Z AUTO 23007KT 10SM CLR 09/06 A2986 RMK AO2 T00850056
KGDB 220250Z AUTO 23007KT 10SM CLR 09/06 A2985 RMK AO2 T00850057
KGDB 220230Z AUTO 24009KT 10SM CLR 10/06 A2984 RMK AO2 T00950060
KGDB 220210Z AUTO 25008KT 10SM CLR 10/06 A2983 RMK AO2 T00980062
KGDB 220149Z AUTO 25010KT 10SM SCT085 10/07 A2982 RMK AO2 T01030065
KGDB 220130Z AUTO 25010KT 7SM SCT085 11/07 A2982 RMK AO2 T01060066
KGDB 220110Z AUTO 25011G18KT 10SM SCT085 11/07 A2983 RMK AO2 T01130067
KGDB 220049Z AUTO 25012G16KT 10SM SCT120 12/07 A2983 RMK AO2 T01160068
KGDB 220029Z AUTO 25011KT 10SM SCT090 BKN120 12/07 A2981 RMK AO2 LTG DSNT SE T01230072
KGDB 220010Z AUTO 26010KT 7SM OVC090 13/07 A2979 RMK AO2 T01260074
KGDB 212350Z AUTO 26006KT 10SM -DZ OVC090 13/08 A2978 RMK AO2 LTG DSNT NE T01250076
KGDB 212330Z AUTO 26008KT 10SM BKN090 BKN110 13/07 A2976 RMK AO2 T01330071
KGDB 212309Z AUTO 26011G18KT 10SM SCT080 BKN100 13/08 A2975 RMK AO2 T01330075
KGDB 212249Z AUTO 26010G21KT 10SM SCT060 BKN080 OVC100 14/08 A2973 RMK AO2 LTG DSNT NE T01390080
KGDB 212230Z AUTO 26012G18KT 10SM OVC060 14/09 A2972 RMK AO2 LTG DSNT E T01380089
KGDB 212210Z AUTO 26015G20KT 10SM SCT050 OVC055 15/08 A2972 RMK AO2 LTG DSNT NE T01450082
KGDB 212149Z AUTO 27011KT 10SM OVC048 15/09 A2970 RMK AO2 LTG DSNT NE AND E T01500087
KGDB 212130Z AUTO 26015G24KT 10SM OVC044 15/09 A2968 RMK AO2 LTG DSNT E T01510091
KGDB 212109Z AUTO 27012G21KT 10SM SCT028 BKN044 OVC075 15/10 A2966 RMK AO2 LTG DSNT E T01540100
KGDB 212050Z AUTO 27015G21KT 10SM BKN028 BKN042 OVC065 16/11 A2965 RMK AO2 LTG DSNT N THRU E T01550107
KGDB 212029Z AUTO 28016G22KT 10SM SCT032 BKN070 OVC085 15/11 A2964 RMK AO2 T01540105
KGDB 212009Z AUTO 27017G20KT 10SM TS BKN034 BKN044 OVC085 16/11 A2962 RMK AO2 LTG DSNT NE AND E T01580110
KGDB 211950Z AUTO 27019G26KT 10SM SCT032 BKN043 OVC050 16/12 A2960 RMK AO2 LTG DSNT N THRU E P0009 T01620118
KGDB 211930Z AUTO 26017G24KT 5SM -TSRA SCT013 BKN027 OVC055 16/14 A2958 RMK AO2 LTG DSNT ALQS P0009 T01630139
KGDB 211909Z AUTO 17012G15KT 10SM TS BKN031 BKN042 OVC050 23/18 A2954 RMK AO2 LTG DSNT ALQS T02300175
KGDB 211849Z AUTO 17016G24KT 10SM SCT030 BKN035 BKN041 24/17 A2954 RMK AO2 T02380174
KGDB 211830Z AUTO 16022G26KT 10SM SCT028 BKN036 BKN043 25/18 A2954 RMK AO2 LTG DSNT S THRU NW T02450177
KGDB 211809Z AUTO 17018G26KT 10SM BKN027 BKN035 BKN043 24/18 A2955 RMK AO2 LTG DSNT SW T02360177
KGDB 211750Z AUTO 17018G24KT 10SM SCT025 SCT035 BKN048 24/18 A2955 RMK AO2 T02400178
KGDB 211729Z AUTO 17020G25KT 10SM SCT025 SCT046 BKN075 24/18 A2955 RMK AO2 T02390177
KGDB 211710Z AUTO 18019G30KT 10SM SCT023 SCT028 BKN075 24/18 A2955 RMK AO2 T02390178
KGDB 211649Z AUTO 17021G27KT 10SM OVC023 23/18 A2955 RMK AO2 T02300175
KGDB 211629Z AUTO 16018G24KT 10SM OVC021 22/17 A2955 RMK AO2 T02230173
KGDB 211610Z AUTO 17018G23KT 10SM OVC021 21/17 A2956 RMK AO2 LTG DSNT E T02140171
KGDB 211550Z AUTO 16016G23KT 10SM BKN021 OVC065 21/17 A2956 RMK AO2 T02110171
KGDB 211530Z AUTO 15015G23KT 10SM SCT021 OVC065 21/17 A2956 RMK AO2 T02050167
KGDB 211509Z AUTO 15016G20KT 10SM SCT055 OVC065 20/17 A2956 RMK AO2 T02010167
KGDB 211449Z AUTO 15018G24KT 7SM SCT025 SCT041 BKN055 20/16 A2956 RMK AO2 T01950161
KGDB 211429Z AUTO 15012G23KT 7SM SCT025 BKN075 20/16 A2956 RMK AO2 T01950160
KGDB 211410Z AUTO 15016G21KT 10SM SCT060 OVC070 19/16 A2956 RMK AO2 T01930156
KGDB 211350Z AUTO 15015G24KT 7SM BKN050 OVC070 19/15 A2955 RMK AO2 LTG DSNT E T01920153
KGDB 211329Z AUTO 15013G22KT 10SM SCT038 BKN047 OVC060 19/15 A2955 RMK AO2 LTG DSNT NE T01920150
KGDB 211310Z AUTO 15018G24KT 10SM SCT029 OVC039 19/15 A2954 RMK AO2 LTG DSNT NE THRU S T01930151
KGDB 211249Z AUTO 15015G22KT 10SM BKN033 OVC044 19/16 A2955 RMK AO2 T01920155